createdAt,value
2023-04-29T00:01:18.440Z,9.27
2023-04-29T00:03:44.901Z,9.75
2023-04-29T00:06:14.388Z,9.98
2023-04-29T00:08:40.903Z,9.77
2023-04-29T00:11:07.267Z,10.40
2023-04-29T00:13:33.509Z,10.85
2023-04-29T00:15:59.700Z,10.70
2023-04-29T00:18:25.913Z,12.07
2023-04-29T00:20:52.150Z,12.45
2023-04-29T00:23:18.373Z,12.70
2023-04-29T00:25:44.564Z,12.23
2023-04-29T00:28:10.758Z,12.10
2023-04-29T00:30:37.035Z,12.38
2023-04-29T00:33:03.300Z,12.52
2023-04-29T00:35:29.652Z,12.38
2023-04-29T00:37:55.870Z,13.05
2023-04-29T00:40:22.197Z,12.38
2023-04-29T00:42:48.509Z,11.27
2023-04-29T00:45:14.714Z,12.48
2023-04-29T00:47:40.928Z,12.20
2023-04-29T00:50:07.752Z,12.00
2023-04-29T00:52:34.128Z,12.55
2023-04-29T00:55:00.456Z,13.10
2023-04-29T00:57:29.992Z,12.93
2023-04-29T00:59:57.584Z,12.05
2023-04-29T01:02:23.897Z,12.25
2023-04-29T01:04:50.231Z,12.05
2023-04-29T01:07:42.467Z,11.70
2023-04-29T01:10:18.841Z,12.00
2023-04-29T01:12:46.762Z,10.80
2023-04-29T01:15:23.493Z,11.77
2023-04-29T01:18:04.804Z,12.90
2023-04-29T01:20:31.848Z,12.98
2023-04-29T01:22:58.061Z,13.43
2023-04-29T01:25:24.297Z,13.82
2023-04-29T01:28:08.569Z,13.25
2023-04-29T01:30:40.587Z,13.27
2023-04-29T01:33:14.877Z,13.65
2023-04-29T01:35:46.591Z,12.50
2023-04-29T01:38:31.769Z,13.52
2023-04-29T01:41:18.709Z,13.60
2023-04-29T01:43:47.605Z,14.55
2023-04-29T01:46:16.254Z,15.15
2023-04-29T01:48:42.716Z,14.80
2023-04-29T01:51:08.938Z,17.25
2023-04-29T01:53:35.159Z,16.65
2023-04-29T01:56:01.346Z,16.70
2023-04-29T01:58:28.253Z,17.10
2023-04-29T02:00:55.176Z,17.05
2023-04-29T02:03:21.508Z,16.80
2023-04-29T02:05:47.805Z,19.50
2023-04-29T02:08:14.018Z,20.42
2023-04-29T02:10:40.273Z,22.25
2023-04-29T02:13:06.503Z,24.45
2023-04-29T02:15:32.725Z,24.30
2023-04-29T02:17:59.072Z,25.65
2023-04-29T02:20:25.323Z,25.58
2023-04-29T02:22:51.915Z,25.08
2023-04-29T02:25:18.513Z,23.85
2023-04-29T02:27:45.273Z,25.58
2023-04-29T02:30:11.624Z,25.52
2023-04-29T02:32:39.287Z,27.80
2023-04-29T02:35:06.218Z,25.50
2023-04-29T02:37:32.425Z,28.83
2023-04-29T02:39:58.652Z,29.15
2023-04-29T02:42:24.836Z,29.50
2023-04-29T02:44:51.062Z,29.77
2023-04-29T02:47:17.296Z,29.45
2023-04-29T02:49:43.617Z,28.48
2023-04-29T02:52:09.821Z,28.85
2023-04-29T02:54:36.400Z,28.50
2023-04-29T02:57:02.699Z,28.27
2023-04-29T02:59:28.910Z,28.45
2023-04-29T03:01:55.111Z,30.75
2023-04-29T03:04:21.487Z,29.42
2023-04-29T03:06:47.839Z,29.58
2023-04-29T03:09:14.388Z,29.50
2023-04-29T03:11:41.278Z,29.02
2023-04-29T03:14:07.625Z,31.30
2023-04-29T03:16:34.581Z,30.45
2023-04-29T03:19:00.877Z,29.88
2023-04-29T03:21:27.503Z,30.02
2023-04-29T03:23:53.711Z,29.90
2023-04-29T03:26:19.924Z,32.13
2023-04-29T03:28:46.373Z,33.42
2023-04-29T03:31:12.722Z,33.22
2023-04-29T03:33:38.972Z,32.80
2023-04-29T03:36:05.445Z,34.45
2023-04-29T03:38:31.658Z,37.13
2023-04-29T03:40:57.849Z,35.90
2023-04-29T03:43:24.327Z,37.30
2023-04-29T03:45:51.084Z,35.78
2023-04-29T03:48:17.639Z,35.67
2023-04-29T03:50:43.938Z,33.03
2023-04-29T03:53:10.263Z,33.72
2023-04-29T03:55:36.495Z,31.40
2023-04-29T03:58:02.696Z,30.92
2023-04-29T04:00:31.114Z,31.85
2023-04-29T04:03:02.732Z,31.73
2023-04-29T04:05:30.801Z,31.70
2023-04-29T04:07:57.075Z,31.63
2023-04-29T04:10:23.285Z,31.35
2023-04-29T04:12:49.509Z,30.92
2023-04-29T04:15:16.928Z,29.10
2023-04-29T04:17:43.411Z,29.63
2023-04-29T04:20:09.942Z,28.88
2023-04-29T04:22:36.168Z,30.40
2023-04-29T04:25:02.429Z,29.95
2023-04-29T04:27:28.656Z,29.63
2023-04-29T04:29:54.941Z,28.38
2023-04-29T04:32:24.287Z,30.17
2023-04-29T04:34:50.640Z,29.83
2023-04-29T04:37:17.504Z,30.52
2023-04-29T04:39:43.745Z,30.63
2023-04-29T04:42:09.971Z,29.25
2023-04-29T04:44:36.189Z,31.90
2023-04-29T04:47:02.551Z,32.95
2023-04-29T04:49:28.786Z,31.45
2023-04-29T04:51:54.986Z,31.80
2023-04-29T04:54:21.253Z,30.88
2023-04-29T04:56:48.349Z,29.85
2023-04-29T04:59:14.547Z,29.67
2023-04-29T05:01:41.017Z,25.67
2023-04-29T05:04:07.318Z,28.63
2023-04-29T05:06:33.806Z,27.05
2023-04-29T05:09:00.046Z,27.30
2023-04-29T05:11:26.249Z,25.95
2023-04-29T05:13:52.485Z,24.98
2023-04-29T05:16:18.791Z,24.58
2023-04-29T05:18:45.702Z,24.60
2023-04-29T05:21:12.308Z,22.63
2023-04-29T05:23:38.532Z,24.35
2023-04-29T05:26:04.745Z,24.15
2023-04-29T05:28:30.966Z,24.08
2023-04-29T05:30:57.282Z,23.25
2023-04-29T05:33:23.551Z,21.08
2023-04-29T05:35:49.921Z,23.13
2023-04-29T05:38:16.127Z,22.10
2023-04-29T05:40:42.390Z,22.52
2023-04-29T05:43:08.749Z,23.10
2023-04-29T05:45:35.017Z,21.77
2023-04-29T05:48:01.295Z,20.10
2023-04-29T05:50:27.531Z,20.25
2023-04-29T05:52:54.650Z,19.42
2023-04-29T05:55:20.978Z,18.63
2023-04-29T05:57:47.182Z,19.45
2023-04-29T06:00:13.487Z,17.85
2023-04-29T06:02:54.849Z,17.98
2023-04-29T06:05:24.999Z,17.55
2023-04-29T06:07:51.875Z,17.00
2023-04-29T06:10:18.164Z,18.45
2023-04-29T06:12:44.387Z,17.65
2023-04-29T06:15:10.672Z,18.58
2023-04-29T06:17:37.686Z,17.05
2023-04-29T06:20:04.409Z,17.15
2023-04-29T06:22:30.738Z,17.15
2023-04-29T06:24:56.963Z,17.45
2023-04-29T06:27:23.186Z,17.52
2023-04-29T06:29:49.439Z,17.55
2023-04-29T06:32:15.748Z,18.02
2023-04-29T06:34:42.032Z,17.65
2023-04-29T06:37:08.252Z,17.25
2023-04-29T06:39:34.517Z,18.73
2023-04-29T06:42:01.841Z,18.85
2023-04-29T06:44:28.053Z,17.40
2023-04-29T06:46:54.332Z,17.23
2023-04-29T06:49:21.480Z,17.85
2023-04-29T06:51:47.682Z,16.73
2023-04-29T06:54:13.875Z,16.10
2023-04-29T06:56:40.108Z,16.00
2023-04-29T06:59:06.329Z,17.23
2023-04-29T07:01:32.673Z,16.70
2023-04-29T07:03:59.057Z,16.15
2023-04-29T07:06:25.448Z,15.45
2023-04-29T07:08:52.545Z,17.15
2023-04-29T07:11:19.934Z,17.00
2023-04-29T07:13:46.249Z,16.30
2023-04-29T07:16:17.849Z,15.80
2023-04-29T07:21:10.269Z,16.02
2023-04-29T07:23:36.465Z,15.00
2023-04-29T07:26:09.449Z,17.00
2023-04-29T07:28:35.749Z,16.00
2023-04-29T07:31:01.994Z,15.85
2023-04-29T07:33:28.554Z,17.13
2023-04-29T07:35:54.785Z,15.48
2023-04-29T07:38:21.679Z,17.15
2023-04-29T07:40:48.131Z,17.15
2023-04-29T07:43:14.356Z,15.93
2023-04-29T07:45:41.398Z,15.38
2023-04-29T07:48:07.750Z,14.90
2023-04-29T07:50:34.323Z,15.30
2023-04-29T07:53:02.024Z,14.90
2023-04-29T07:55:29.787Z,14.60
2023-04-29T07:57:56.833Z,14.48
2023-04-29T08:00:23.964Z,15.82
2023-04-29T08:02:53.910Z,14.52
2023-04-29T08:05:23.394Z,14.90
2023-04-29T08:07:50.415Z,13.23
2023-04-29T08:10:17.368Z,13.50
2023-04-29T08:12:47.176Z,13.75
2023-04-29T08:15:13.728Z,13.75
2023-04-29T08:17:40.072Z,12.57
2023-04-29T08:20:07.962Z,12.95
2023-04-29T08:22:34.196Z,12.48
2023-04-29T08:25:00.852Z,12.90
2023-04-29T08:27:27.264Z,11.80
2023-04-29T08:29:53.559Z,12.07
2023-04-29T08:32:20.160Z,12.32
2023-04-29T08:34:46.769Z,11.68
2023-04-29T08:37:13.117Z,12.10
2023-04-29T08:39:39.366Z,13.15
2023-04-29T08:42:08.900Z,11.68
2023-04-29T08:44:35.375Z,12.48
2023-04-29T08:47:01.694Z,12.43
2023-04-29T08:49:28.550Z,12.45
2023-04-29T08:51:54.889Z,11.68
2023-04-29T08:54:21.170Z,12.00
2023-04-29T08:56:47.960Z,12.43
2023-04-29T08:59:15.145Z,12.88
2023-04-29T09:01:42.256Z,12.70
2023-04-29T09:04:14.858Z,12.20
2023-04-29T09:06:41.511Z,11.80
2023-04-29T09:09:08.047Z,11.65
2023-04-29T09:11:35.614Z,11.02
2023-04-29T09:14:02.323Z,10.70
2023-04-29T09:16:29.122Z,10.05
2023-04-29T09:18:56.662Z,11.05
2023-04-29T09:21:23.772Z,10.40
2023-04-29T09:23:52.045Z,10.38
2023-04-29T09:26:18.591Z,10.70
2023-04-29T09:28:45.198Z,10.77
2023-04-29T09:31:12.267Z,11.30
2023-04-29T09:33:51.982Z,10.73
2023-04-29T09:36:40.816Z,11.02
2023-04-29T09:39:11.513Z,10.90
2023-04-29T09:41:53.309Z,9.87
2023-04-29T09:44:27.190Z,10.65
2023-04-29T09:46:57.851Z,9.23
2023-04-29T09:49:27.948Z,10.70
2023-04-29T09:51:57.896Z,10.73
2023-04-29T09:54:24.662Z,11.18
2023-04-29T09:56:51.862Z,11.07
2023-04-29T09:59:18.751Z,11.13
2023-04-29T10:01:48.690Z,11.80
2023-04-29T10:04:16.305Z,11.73
2023-04-29T10:06:43.075Z,11.20
2023-04-29T10:09:13.024Z,12.73
2023-04-29T10:11:40.675Z,12.15
2023-04-29T10:14:07.462Z,12.52
2023-04-29T10:16:35.076Z,13.90
2023-04-29T10:19:07.321Z,13.20
2023-04-29T10:21:33.604Z,13.93
2023-04-29T10:24:01.722Z,15.10
2023-04-29T10:26:29.221Z,14.45
2023-04-29T10:28:56.544Z,14.13
2023-04-29T10:31:25.373Z,13.93
2023-04-29T10:33:51.880Z,13.57
2023-04-29T10:36:18.279Z,13.77
2023-04-29T10:38:47.992Z,12.43
2023-04-29T10:41:20.458Z,11.73
2023-04-29T10:43:47.154Z,12.05
2023-04-29T10:46:16.477Z,12.60
2023-04-29T10:48:46.210Z,12.85
2023-04-29T10:51:12.496Z,12.98
2023-04-29T10:53:58.630Z,13.88
2023-04-29T10:56:35.224Z,14.68
2023-04-29T10:59:01.439Z,15.48
2023-04-29T11:01:40.630Z,15.77
2023-04-29T11:04:07.016Z,16.20
2023-04-29T11:06:36.639Z,16.45
2023-04-29T11:09:11.076Z,16.58
2023-04-29T11:12:06.961Z,16.13
2023-04-29T11:14:33.192Z,16.23
2023-04-29T11:17:01.277Z,16.30
2023-04-29T11:19:40.105Z,14.60
2023-04-29T11:22:10.028Z,15.65
2023-04-29T11:24:38.948Z,17.83
2023-04-29T11:27:05.412Z,18.65
2023-04-29T11:29:32.817Z,18.33
2023-04-29T11:32:02.471Z,17.45
2023-04-29T11:34:28.778Z,18.02
2023-04-29T11:36:55.064Z,18.63
2023-04-29T11:39:21.317Z,19.85
2023-04-29T11:41:51.138Z,22.92
2023-04-29T11:44:22.480Z,25.23
2023-04-29T11:46:49.699Z,27.50
2023-04-29T11:49:15.901Z,33.90
2023-04-29T11:51:42.664Z,39.33
2023-04-29T11:54:08.925Z,40.92
2023-04-29T11:56:37.867Z,43.03
2023-04-29T11:59:07.925Z,42.92
2023-04-29T12:01:35.851Z,41.22
2023-04-29T12:04:03.180Z,41.75
2023-04-29T12:06:30.149Z,43.88
2023-04-29T12:08:58.468Z,45.20
2023-04-29T12:11:25.530Z,44.33
2023-04-29T12:13:51.973Z,45.30
2023-04-29T12:16:18.230Z,47.22
2023-04-29T12:18:44.505Z,49.53
2023-04-29T12:21:10.754Z,47.45
2023-04-29T12:23:37.336Z,46.80
2023-04-29T12:26:03.803Z,48.75
2023-04-29T12:28:30.657Z,48.47
2023-04-29T12:30:58.935Z,50.08
2023-04-29T12:33:26.713Z,47.22
2023-04-29T12:35:54.351Z,48.05
2023-04-29T12:38:28.165Z,51.03
2023-04-29T12:40:58.998Z,45.97
2023-04-29T12:43:32.083Z,48.25
2023-04-29T12:46:05.769Z,46.67
2023-04-29T12:48:33.508Z,45.72
2023-04-29T12:51:01.290Z,44.03
2023-04-29T12:53:29.372Z,41.05
2023-04-29T12:55:55.690Z,40.42
2023-04-29T12:58:22.215Z,37.58
2023-04-29T13:00:48.490Z,34.17
2023-04-29T13:03:15.135Z,33.03
2023-04-29T13:05:42.027Z,31.42
2023-04-29T13:08:08.903Z,26.52
2023-04-29T13:10:35.461Z,30.88
2023-04-29T13:13:02.392Z,30.02
2023-04-29T13:15:28.608Z,26.88
2023-04-29T13:17:55.564Z,25.55
2023-04-29T13:20:21.887Z,25.73
2023-04-29T13:22:48.160Z,23.55
2023-04-29T13:25:16.387Z,21.60
2023-04-29T13:27:43.846Z,20.35
2023-04-29T13:30:10.744Z,21.25
2023-04-29T13:32:44.896Z,20.83
2023-04-29T13:35:15.714Z,20.15
2023-04-29T13:37:42.100Z,17.67
2023-04-29T13:40:08.584Z,18.92
2023-04-29T13:42:39.552Z,20.00
2023-04-29T13:45:16.290Z,19.50
2023-04-29T13:48:03.728Z,17.92
2023-04-29T13:56:23.446Z,18.83
2023-04-29T13:58:56.008Z,18.00
2023-04-29T14:01:17.588Z,16.73
2023-04-29T14:03:49.137Z,16.83
2023-04-29T14:06:16.249Z,16.88
2023-04-29T14:08:42.470Z,17.27
2023-04-29T14:11:08.750Z,17.52
2023-04-29T14:13:34.953Z,17.38
2023-04-29T14:16:03.493Z,16.85
2023-04-29T14:18:30.577Z,16.95
2023-04-29T14:20:57.864Z,17.67
2023-04-29T14:23:24.119Z,16.65
2023-04-29T14:25:51.162Z,16.10
2023-04-29T14:28:17.357Z,16.85
2023-04-29T14:30:46.690Z,16.13
2023-04-29T14:33:13.220Z,16.92
2023-04-29T14:35:39.444Z,16.90
2023-04-29T14:38:05.689Z,17.40
2023-04-29T14:40:31.925Z,17.35
2023-04-29T14:42:58.194Z,17.23
2023-04-29T14:45:24.473Z,15.95
2023-04-29T14:47:50.743Z,16.88
2023-04-29T14:50:17.668Z,16.77
2023-04-29T14:52:43.941Z,16.20
2023-04-29T14:55:10.197Z,16.08
2023-04-29T14:57:36.533Z,17.48
2023-04-29T15:00:03.554Z,17.23
2023-04-29T15:02:29.870Z,16.95
2023-04-29T15:04:56.428Z,18.83
2023-04-29T15:07:22.959Z,21.02
2023-04-29T15:09:50.398Z,22.02
2023-04-29T15:12:17.950Z,21.77
2023-04-29T15:14:44.188Z,22.75
2023-04-29T15:17:10.374Z,22.27
2023-04-29T15:19:36.713Z,22.13
2023-04-29T15:22:02.959Z,23.20
2023-04-29T15:24:29.210Z,22.10
2023-04-29T15:26:55.623Z,21.58
2023-04-29T15:29:22.058Z,20.52
2023-04-29T15:31:48.360Z,22.25
2023-04-29T15:34:14.597Z,23.08
2023-04-29T15:36:41.652Z,23.65
2023-04-29T15:39:10.834Z,21.83
2023-04-29T15:41:37.352Z,21.38
2023-04-29T15:44:03.550Z,20.98
2023-04-29T15:46:30.385Z,23.35
2023-04-29T15:48:57.155Z,23.25
2023-04-29T15:51:23.437Z,21.23
2023-04-29T15:53:50.848Z,21.67
2023-04-29T15:56:17.323Z,22.17
2023-04-29T15:58:43.828Z,22.13
2023-04-29T16:01:10.102Z,20.90
2023-04-29T16:03:36.443Z,21.55
2023-04-29T16:06:02.812Z,21.17
2023-04-29T16:08:29.116Z,20.30
2023-04-29T16:10:55.313Z,22.58
2023-04-29T16:13:21.704Z,23.55
2023-04-29T16:15:48.072Z,22.02
2023-04-29T16:18:14.613Z,21.35
2023-04-29T16:20:41.724Z,21.58
2023-04-29T16:23:08.305Z,23.30
2023-04-29T16:25:34.559Z,23.48
2023-04-29T16:28:00.880Z,23.67
2023-04-29T16:30:27.796Z,22.40
2023-04-29T16:32:54.410Z,23.25
2023-04-29T16:35:25.678Z,25.58
2023-04-29T16:37:53.115Z,24.13
2023-04-29T16:40:19.382Z,24.85
2023-04-29T16:42:45.600Z,25.00
2023-04-29T16:45:13.534Z,26.48
2023-04-29T16:47:41.415Z,26.83
2023-04-29T16:50:08.223Z,27.67
2023-04-29T16:52:35.034Z,27.35
2023-04-29T16:55:04.371Z,27.20
2023-04-29T16:57:30.667Z,27.52
2023-04-29T16:59:56.902Z,27.75
2023-04-29T17:02:23.228Z,26.50
2023-04-29T17:04:50.721Z,24.75
2023-04-29T17:07:19.369Z,26.80
2023-04-29T17:09:48.965Z,26.17
2023-04-29T17:12:15.285Z,24.60
2023-04-29T17:14:41.512Z,25.75
2023-04-29T17:17:07.756Z,26.58
2023-04-29T17:19:34.421Z,25.70
2023-04-29T17:22:00.656Z,28.55
2023-04-29T17:24:26.867Z,25.05
2023-04-29T17:26:53.074Z,27.00
2023-04-29T17:29:19.282Z,25.70
2023-04-29T17:31:45.698Z,26.77
2023-04-29T17:34:18.531Z,26.55
2023-04-29T17:36:46.503Z,25.13
2023-04-29T17:39:13.828Z,26.75
2023-04-29T17:41:40.394Z,25.90
2023-04-29T17:44:07.927Z,25.88
2023-04-29T17:46:37.441Z,25.17
2023-04-29T17:49:04.122Z,24.85
2023-04-29T17:51:33.093Z,24.67
2023-04-29T17:54:00.288Z,24.58
2023-04-29T17:56:27.297Z,24.92
2023-04-29T17:58:53.813Z,24.25
2023-04-29T18:01:20.069Z,22.42
2023-04-29T18:03:47.173Z,24.60
2023-04-29T18:06:13.505Z,22.45
2023-04-29T18:08:39.773Z,23.35
2023-04-29T18:11:07.560Z,23.50
2023-04-29T18:13:33.765Z,21.95
2023-04-29T18:16:00.148Z,22.55
2023-04-29T18:18:26.834Z,22.17
2023-04-29T18:20:53.037Z,21.00
2023-04-29T18:23:19.246Z,20.10
2023-04-29T18:25:45.602Z,20.58
2023-04-29T18:28:24.200Z,20.85
2023-04-29T18:30:52.418Z,20.13
2023-04-29T18:33:18.823Z,20.58
2023-04-29T18:35:45.184Z,20.27
2023-04-29T18:38:14.115Z,20.02
2023-04-29T18:40:40.703Z,20.52
2023-04-29T18:43:07.122Z,21.60
2023-04-29T18:45:33.336Z,22.65
2023-04-29T18:48:03.725Z,23.75
2023-04-29T18:50:30.044Z,23.35
2023-04-29T18:52:56.301Z,21.83
2023-04-29T18:55:22.566Z,24.25
2023-04-29T18:57:48.768Z,24.77
2023-04-29T19:00:16.143Z,23.73
2023-04-29T19:02:42.405Z,23.63
2023-04-29T19:05:12.888Z,24.27
2023-04-29T19:07:39.176Z,25.48
2023-04-29T19:10:06.113Z,24.40
2023-04-29T19:12:32.504Z,22.80
2023-04-29T19:14:59.001Z,23.92
2023-04-29T19:17:25.218Z,22.92
2023-04-29T19:19:51.593Z,23.40
2023-04-29T19:22:18.269Z,23.70
2023-04-29T19:24:44.538Z,22.45
2023-04-29T19:27:10.832Z,23.55
2023-04-29T19:29:37.140Z,22.52
2023-04-29T19:32:03.684Z,23.23
2023-04-29T19:34:29.986Z,21.98
2023-04-29T19:36:56.346Z,23.55
2023-04-29T19:39:22.709Z,21.55
2023-04-29T19:41:48.916Z,22.73
2023-04-29T19:44:15.186Z,20.50
2023-04-29T19:46:41.478Z,22.90
2023-04-29T19:49:07.837Z,22.50
2023-04-29T19:51:34.208Z,20.77
2023-04-29T19:54:01.807Z,22.35
2023-04-29T19:56:27.993Z,20.67
2023-04-29T19:58:54.202Z,19.70
2023-04-29T20:01:20.544Z,21.60
2023-04-29T20:03:46.914Z,22.45
2023-04-29T20:06:15.539Z,20.27
2023-04-29T20:08:42.118Z,20.35
2023-04-29T20:11:08.319Z,22.00
2023-04-29T20:13:34.540Z,21.63
2023-04-29T20:16:00.829Z,20.33
2023-04-29T20:18:27.046Z,20.65
2023-04-29T20:20:53.293Z,21.85
2023-04-29T20:23:19.502Z,21.75
2023-04-29T20:25:46.210Z,21.00
2023-04-29T20:28:12.455Z,21.33
2023-04-29T20:30:38.914Z,23.13
2023-04-29T20:33:07.030Z,19.92
2023-04-29T20:35:34.886Z,21.27
2023-04-29T20:38:01.357Z,21.08
2023-04-29T20:40:27.718Z,22.88
2023-04-29T20:42:53.979Z,22.58
2023-04-29T20:45:20.245Z,19.63
2023-04-29T20:47:46.815Z,22.90
2023-04-29T20:50:13.055Z,22.33
2023-04-29T20:52:40.188Z,21.20
2023-04-29T20:55:06.422Z,20.33
2023-04-29T20:57:32.793Z,22.67
2023-04-29T20:59:59.473Z,20.52
2023-04-29T21:02:25.835Z,23.95
2023-04-29T21:04:52.099Z,22.35
2023-04-29T21:07:18.368Z,21.75
2023-04-29T21:09:44.643Z,22.25
2023-04-29T21:12:10.880Z,22.08
2023-04-29T21:14:37.425Z,24.10
2023-04-29T21:17:03.652Z,23.10
2023-04-29T21:19:29.954Z,22.77
2023-04-29T21:21:56.334Z,21.63
2023-04-29T21:24:22.592Z,22.98
2023-04-29T21:26:50.174Z,21.50
2023-04-29T21:29:16.375Z,22.48
2023-04-29T21:31:42.660Z,22.75
2023-04-29T21:34:08.896Z,21.83
2023-04-29T21:36:35.438Z,22.02
2023-04-29T21:39:01.890Z,24.92
2023-04-29T21:41:29.142Z,23.40
2023-04-29T21:43:57.182Z,23.08
2023-04-29T21:46:23.501Z,23.85
2023-04-29T21:48:50.266Z,23.27
2023-04-29T21:51:18.878Z,24.00
2023-04-29T21:53:45.762Z,23.52
2023-04-29T21:56:12.091Z,23.23
2023-04-29T21:58:38.469Z,23.77
2023-04-29T22:01:24.899Z,24.83
2023-04-29T22:03:51.725Z,24.70
2023-04-29T22:06:17.943Z,24.08
2023-04-29T22:08:44.173Z,23.33
2023-04-29T22:11:10.392Z,25.45
2023-04-29T22:13:36.593Z,24.85
2023-04-29T22:16:02.833Z,24.05
2023-04-29T22:18:29.082Z,24.33
2023-04-29T22:20:55.392Z,26.42
2023-04-29T22:23:22.570Z,25.58
2023-04-29T22:25:48.811Z,25.55
2023-04-29T22:28:15.231Z,23.23
2023-04-29T22:30:44.631Z,25.55
2023-04-29T22:33:12.225Z,24.50
2023-04-29T22:35:38.579Z,22.65
2023-04-29T22:38:04.966Z,23.10
2023-04-29T22:40:31.448Z,22.80
2023-04-29T22:42:57.698Z,25.83
2023-04-29T22:45:23.895Z,24.42
2023-04-29T22:47:50.220Z,23.98
2023-04-29T22:50:16.440Z,23.65
2023-04-29T22:52:42.667Z,24.98
2023-04-29T22:55:09.244Z,25.27
2023-04-29T22:57:35.537Z,26.48
2023-04-29T23:00:01.737Z,25.10
2023-04-29T23:02:29.133Z,24.67
2023-04-29T23:04:56.453Z,25.55
2023-04-29T23:07:23.196Z,26.30
2023-04-29T23:09:49.774Z,26.42
2023-04-29T23:12:16.469Z,25.33
2023-04-29T23:14:42.858Z,26.83
2023-04-29T23:17:09.392Z,25.27
2023-04-29T23:19:35.702Z,27.17
2023-04-29T23:22:01.933Z,26.80
2023-04-29T23:24:28.150Z,25.38
2023-04-29T23:26:54.344Z,25.73
2023-04-29T23:29:20.610Z,26.83
2023-04-29T23:31:46.890Z,26.45
2023-04-29T23:34:13.189Z,28.15
2023-04-29T23:36:39.431Z,27.80
2023-04-29T23:39:05.644Z,25.05
2023-04-29T23:41:32.025Z,27.33
2023-04-29T23:44:01.556Z,25.08
2023-04-29T23:46:27.915Z,27.65
2023-04-29T23:48:54.158Z,26.42
2023-04-29T23:51:20.448Z,27.00
2023-04-29T23:53:46.675Z,27.08
2023-04-29T23:56:12.978Z,27.92
2023-04-29T23:58:39.197Z,26.92
